createdAt,value
2018-04-01T00:02:37.506Z,99.90
2018-04-01T02:02:36.721Z,99.90
2018-04-01T03:02:38.211Z,99.90
2018-04-01T04:02:36.943Z,99.90
2018-04-01T05:02:36.374Z,99.90
2018-04-01T05:05:03.942Z,99.90
2018-04-01T05:07:32.269Z,99.90
2018-04-01T05:09:59.867Z,99.90
2018-04-01T05:12:27.438Z,99.90
2018-04-01T05:14:54.981Z,99.90
2018-04-01T05:17:23.318Z,99.40
2018-04-01T05:19:50.929Z,99.40
2018-04-01T05:22:18.722Z,98.70
2018-04-01T05:24:46.266Z,98.50
2018-04-01T05:27:13.889Z,98.30
2018-04-01T05:29:41.438Z,98.40
2018-04-01T05:32:08.973Z,98.10
2018-04-01T05:34:36.513Z,98.30
2018-04-01T05:37:04.050Z,98.30
2018-04-01T05:39:31.593Z,97.90
2018-04-01T05:41:59.158Z,97.90
2018-04-01T05:44:26.741Z,98.10
2018-04-01T05:46:54.278Z,97.90
2018-04-01T05:49:21.835Z,97.70
2018-04-01T05:51:50.164Z,97.40
2018-04-01T05:54:17.754Z,97.40
2018-04-01T05:56:45.523Z,97.60
2018-04-01T05:59:13.107Z,97.80
2018-04-01T06:01:40.643Z,97.70
2018-04-01T06:04:08.183Z,97.90
2018-04-01T06:06:35.724Z,97.70
2018-04-01T06:09:03.336Z,97.80
2018-04-01T06:11:30.913Z,97.50
2018-04-01T06:13:58.453Z,97.70
2018-04-01T06:16:26.014Z,97.30
2018-04-01T06:18:53.566Z,97.40
2018-04-01T06:21:21.138Z,97.50
2018-04-01T06:23:48.678Z,97.00
2018-04-01T06:26:16.222Z,96.80
2018-04-01T06:28:43.778Z,96.90
2018-04-01T06:31:11.326Z,96.50
2018-04-01T06:33:38.871Z,96.70
2018-04-01T06:36:06.409Z,96.70
2018-04-01T06:38:33.983Z,96.80
2018-04-01T06:41:01.542Z,96.50
2018-04-01T06:43:29.862Z,96.60
2018-04-01T06:45:57.399Z,96.50
2018-04-01T06:48:24.934Z,96.90
2018-04-01T06:50:52.478Z,96.80
2018-04-01T06:53:20.030Z,96.80
2018-04-01T06:55:47.591Z,96.60
2018-04-01T06:58:15.916Z,96.50
2018-04-01T07:00:43.459Z,96.60
2018-04-01T07:03:11.008Z,96.60
2018-04-01T08:02:36.146Z,99.90
2018-04-01T08:05:03.714Z,99.90
2018-04-01T09:02:39.639Z,97.70
2018-04-01T10:02:44.885Z,95.90
2018-04-01T11:02:36.717Z,97.10
2018-04-01T11:05:04.375Z,96.80
2018-04-01T11:07:31.930Z,96.10
2018-04-01T11:09:59.481Z,95.60
2018-04-01T11:12:27.042Z,94.60
2018-04-01T11:14:54.606Z,94.20
2018-04-01T11:17:22.166Z,93.30
2018-04-01T11:19:49.715Z,92.80
2018-04-01T11:22:17.497Z,92.80
2018-04-01T11:24:45.091Z,93.40
2018-04-01T11:27:12.719Z,92.30
2018-04-01T11:29:40.274Z,92.80
2018-04-01T11:32:07.859Z,92.60
2018-04-01T11:34:36.179Z,92.20
2018-04-01T11:37:03.726Z,92.20
2018-04-01T11:39:31.299Z,92.50
2018-04-01T11:41:58.846Z,92.60
2018-04-01T11:44:26.385Z,93.00
2018-04-01T11:46:53.957Z,93.00
2018-04-01T11:49:21.508Z,92.80
2018-04-01T11:51:49.065Z,93.10
2018-04-01T11:54:16.626Z,93.30
2018-04-01T11:56:44.193Z,93.80
2018-04-01T11:59:11.758Z,93.80
2018-04-01T12:01:39.318Z,94.00
2018-04-01T12:04:06.874Z,94.00
2018-04-01T13:02:36.665Z,99.80
2018-04-01T13:05:04.210Z,99.80
2018-04-01T14:02:36.864Z,99.40
2018-04-01T15:02:34.838Z,99.90
2018-04-01T15:05:02.390Z,99.90
2018-04-01T16:02:36.783Z,99.90
2018-04-01T16:05:04.319Z,99.90
2018-04-01T22:02:36.921Z,99.90
2018-04-01T23:02:37.359Z,99.90
2018-04-01T23:05:12.706Z,99.90
2018-04-01T23:07:41.823Z,99.90
2018-04-01T23:10:14.386Z,99.90
2018-04-01T23:12:46.332Z,99.90
2018-04-01T23:15:14.367Z,99.90
2018-04-01T23:17:42.394Z,99.90
2018-04-01T23:20:10.597Z,99.90
2018-04-01T23:22:38.707Z,99.90
2018-04-01T23:25:06.718Z,99.90
2018-04-01T23:27:34.999Z,99.90
2018-04-01T23:30:03.034Z,99.90
2018-04-01T23:32:31.074Z,99.90
2018-04-01T23:34:59.869Z,99.90
2018-04-01T23:37:27.929Z,99.90
2018-04-01T23:39:55.962Z,99.90
2018-04-01T23:42:23.990Z,99.90
2018-04-01T23:44:52.041Z,99.90
2018-04-01T23:47:20.106Z,99.90
2018-04-01T23:49:48.129Z,99.90
2018-04-01T23:52:16.168Z,99.90
2018-04-01T23:54:44.971Z,99.90
2018-04-01T23:57:13.171Z,99.90
2018-04-01T23:59:41.215Z,99.90
